Terminal Aerodrome Forecast
Issued by NWS

Home | Current Version | Previous Version | Text Only | Print | Product List | Glossary On
Versions: 1 2 3 4 5 6 7 8 9 10 11 12 13 14 15 16 17 18 19 20 21 22
185
FTAK31 PAJN 201740
TAFAYA
TAF
PAYA 201740Z 2018/2118 12008KT P6SM -SHRA BKN015 BKN025 OVC040
     FM202200 12008KT P6SM -SHRA BKN025 OVC050
     FM210200 10006KT P6SM VCSH BKN035 BKN080
      AMD LTD TO CLD VIS AND WIND=

USA.gov is the U.S. government's official web portal to all federal, state and local government web resources and services.